Time;durP1;ratioP1;P1;durP2;ratioP2;P2;SDS_P1;SDS_P2;PMS_P1;PMS_P2;Temp;Humidity;BMP_temperature;BMP_pressure;BME280_temperature;BME280_humidity;BME280_pressure;Samples;Min_cycle;Max_cycle;Signal;HPM_P1;HPM_P2
2021/10/16 00:01:00;;;;;;;12.20;6.13;;;12.00;93.60;;;;;;5010786;28;20510;-77
2021/10/16 00:03:26;;;;;;;7.85;5.60;;;12.00;93.70;;;;;;5011072;28;20128;-77
2021/10/16 00:05:51;;;;;;;11.93;6.38;;;12.00;93.60;;;;;;5012574;28;20053;-77
2021/10/16 00:08:17;;;;;;;25.30;10.60;;;12.00;93.60;;;;;;5011470;28;20049;-76
2021/10/16 00:10:43;;;;;;;17.08;8.27;;;12.00;93.40;;;;;;5010089;28;20054;-77
2021/10/16 00:13:08;;;;;;;10.35;6.68;;;12.00;93.40;;;;;;5008334;28;20042;-78
2021/10/16 00:15:34;;;;;;;14.15;8.43;;;12.00;93.40;;;;;;4992579;28;20434;-77
2021/10/16 00:18:00;;;;;;;16.42;7.32;;;12.00;93.40;;;;;;5005385;28;20381;-77
2021/10/16 00:20:26;;;;;;;10.88;6.90;;;12.00;93.30;;;;;;5011480;28;20041;-77
2021/10/16 00:22:51;;;;;;;11.65;5.60;;;12.00;93.30;;;;;;5011002;28;20034;-78
2021/10/16 00:25:17;;;;;;;8.27;5.63;;;12.10;93.30;;;;;;5012158;28;20029;-76
2021/10/16 00:27:43;;;;;;;9.73;6.47;;;12.00;93.10;;;;;;5012248;28;20030;-77
2021/10/16 00:30:09;;;;;;;13.55;6.53;;;12.00;93.30;;;;;;5011664;28;20048;-77
2021/10/16 00:32:35;;;;;;;8.43;5.43;;;12.00;93.30;;;;;;5011454;28;20038;-77
2021/10/16 00:35:01;;;;;;;12.43;7.40;;;12.00;93.30;;;;;;5011653;28;20389;-77
2021/10/16 00:37:27;;;;;;;9.55;6.55;;;12.00;93.00;;;;;;5012134;28;20042;-78
2021/10/16 00:39:54;;;;;;;8.20;6.00;;;12.00;92.70;;;;;;5011927;28;20041;-76
2021/10/16 00:42:20;;;;;;;12.30;6.97;;;12.00;92.70;;;;;;5011301;28;20052;-77
2021/10/16 00:44:46;;;;;;;8.15;5.25;;;12.00;93.00;;;;;;5008593;28;20068;-77
2021/10/16 00:47:12;;;;;;;11.63;6.65;;;12.00;92.80;;;;;;5013737;28;20057;-78
2021/10/16 00:49:38;;;;;;;7.18;5.65;;;12.00;92.80;;;;;;5014724;28;20060;-74
2021/10/16 00:52:04;;;;;;;9.90;6.38;;;12.10;92.70;;;;;;5014396;28;20398;-77
2021/10/16 00:54:31;;;;;;;10.13;6.05;;;12.00;93.00;;;;;;5015183;28;20034;-77
2021/10/16 00:56:59;;;;;;;9.95;6.00;;;12.00;93.10;;;;;;5014569;28;20026;-77
2021/10/16 00:59:26;;;;;;;7.57;5.60;;;11.90;93.10;;;;;;5015023;28;20060;-77
2021/10/16 01:01:52;;;;;;;12.18;6.72;;;11.90;93.10;;;;;;5015178;28;20105;-77
2021/10/16 01:04:17;;;;;;;7.63;5.82;;;11.90;93.10;;;;;;5012887;28;20116;-74
2021/10/16 01:06:44;;;;;;;10.48;6.03;;;11.90;92.90;;;;;;5014486;28;20371;-77
2021/10/16 01:09:10;;;;;;;9.15;6.40;;;11.90;93.00;;;;;;5014710;28;20042;-77
2021/10/16 01:11:56;;;;;;;13.27;8.80;;;11.90;93.00;;;;;;5014443;28;20114;-77
2021/10/16 01:14:23;;;;;;;7.38;5.70;;;11.90;93.00;;;;;;5014641;28;20049;-75
2021/10/16 01:16:51;;;;;;;7.95;5.70;;;11.90;93.00;;;;;;5014519;28;20033;-77
2021/10/16 01:19:19;;;;;;;10.88;6.90;;;11.90;93.10;;;;;;5014709;28;20045;-76
2021/10/16 01:21:48;;;;;;;11.77;7.38;;;11.80;93.20;;;;;;5014378;28;20374;-77
2021/10/16 01:24:15;;;;;;;9.15;6.45;;;11.90;93.10;;;;;;5014614;28;20084;-78
2021/10/16 01:26:43;;;;;;;7.15;5.35;;;11.80;93.30;;;;;;5026579;28;20030;-77
2021/10/16 01:29:10;;;;;;;7.35;5.40;;;11.70;93.40;;;;;;5014297;28;21037;-77
2021/10/16 01:31:37;;;;;;;7.97;5.80;;;11.70;93.30;;;;;;5014515;28;20112;-76
2021/10/16 01:34:04;;;;;;;8.35;5.15;;;11.70;93.30;;;;;;5014360;28;20056;-74
2021/10/16 01:36:59;;;;;;;8.25;6.05;;;11.60;93.40;;;;;;5014160;28;20104;-76
2021/10/16 01:39:25;;;;;;;23.33;9.93;;;11.60;93.40;;;;;;5005523;28;20395;-78
2021/10/16 01:41:51;;;;;;;35.38;13.48;;;11.60;93.40;;;;;;5014204;28;20438;-78
2021/10/16 01:44:17;;;;;;;12.55;6.18;;;11.60;93.10;;;;;;5029149;28;20026;-77
2021/10/16 01:46:43;;;;;;;9.57;6.50;;;11.60;93.10;;;;;;5012658;28;20101;-77
2021/10/16 01:49:15;;;;;;;10.15;6.63;;;11.60;93.00;;;;;;5014470;28;20121;-78
2021/10/16 01:51:42;;;;;;;8.93;6.25;;;11.60;92.70;;;;;;5021676;28;20041;-77
2021/10/16 01:54:09;;;;;;;13.55;5.72;;;11.70;92.40;;;;;;5014103;28;20053;-78
2021/10/16 01:56:34;;;;;;;14.18;6.22;;;11.70;92.60;;;;;;5014034;28;20088;-78
2021/10/16 01:59:17;;;;;;;6.80;4.95;;;11.80;92.50;;;;;;5016389;28;20021;-77
2021/10/16 02:01:43;;;;;;;;;;;11.90;92.30;;;;;;5016773;28;20117;-77
2021/10/16 02:04:09;;;;;;;6.00;4.90;;;11.80;92.40;;;;;;5013944;28;19912;-77
2021/10/16 02:06:35;;;;;;;7.57;5.25;;;11.80;92.50;;;;;;5013920;28;20038;-77
2021/10/16 02:09:00;;;;;;;13.10;5.53;;;11.80;92.60;;;;;;5013750;28;20085;-78
2021/10/16 02:11:26;;;;;;;8.82;6.30;;;11.80;92.40;;;;;;5022501;28;20034;-76
2021/10/16 02:13:52;;;;;;;13.48;7.95;;;11.80;92.70;;;;;;5012313;28;20046;-77
2021/10/16 02:16:17;;;;;;;9.73;6.10;;;11.70;92.70;;;;;;5013300;28;20022;-77
2021/10/16 02:18:43;;;;;;;8.20;5.40;;;11.70;92.80;;;;;;5013280;28;20037;-77
2021/10/16 02:21:09;;;;;;;7.00;5.22;;;11.70;92.90;;;;;;5013043;28;20037;-77
2021/10/16 02:23:34;;;;;;;6.70;4.88;;;11.60;93.00;;;;;;5012038;28;20030;-77
2021/10/16 02:26:00;;;;;;;14.40;6.90;;;11.60;92.90;;;;;;5013007;28;20026;-77
2021/10/16 02:28:26;;;;;;;12.85;6.95;;;11.60;93.00;;;;;;5013106;28;20465;-77
2021/10/16 02:30:51;;;;;;;9.07;5.30;;;11.60;93.20;;;;;;5013418;28;20525;-76
2021/10/16 02:33:17;;;;;;;12.02;6.00;;;11.60;92.90;;;;;;5013700;28;20120;-77
2021/10/16 02:35:42;;;;;;;22.65;7.80;;;11.60;92.70;;;;;;5013214;28;20034;-74
2021/10/16 02:38:08;;;;;;;12.93;6.80;;;11.60;92.60;;;;;;5012125;28;20033;-77
2021/10/16 02:40:34;;;;;;;15.10;8.30;;;11.60;92.50;;;;;;5012900;28;20042;-77
2021/10/16 02:43:02;;;;;;;14.95;7.50;;;11.60;92.60;;;;;;5012944;28;20116;-77
2021/10/16 02:45:28;;;;;;;7.43;4.63;;;11.60;92.50;;;;;;5012737;28;20028;-78
2021/10/16 02:47:54;;;;;;;11.40;5.53;;;11.70;91.70;;;;;;5012949;28;20030;-77
2021/10/16 02:50:19;;;;;;;7.10;4.90;;;11.80;91.10;;;;;;5005803;28;20399;-77
2021/10/16 02:52:45;;;;;;;7.15;4.78;;;11.90;91.10;;;;;;4998084;28;20038;-78
2021/10/16 02:55:11;;;;;;;38.63;14.68;;;11.90;91.10;;;;;;5012151;28;20030;-75
2021/10/16 02:57:37;;;;;;;10.05;5.68;;;11.90;91.20;;;;;;5012181;28;20042;-78
2021/10/16 03:00:04;;;;;;;83.90;25.13;;;11.90;91.30;;;;;;5009289;28;20089;-77
2021/10/16 03:02:30;;;;;;;25.60;12.98;;;11.90;91.50;;;;;;5004711;28;20030;-71
2021/10/16 03:04:56;;;;;;;20.95;10.68;;;11.90;91.80;;;;;;5012692;28;20033;-76
2021/10/16 03:07:21;;;;;;;32.72;16.55;;;11.90;91.90;;;;;;5012872;28;20401;-77
2021/10/16 03:09:47;;;;;;;19.85;9.13;;;11.80;92.20;;;;;;5012070;28;20106;-77
2021/10/16 03:12:13;;;;;;;45.67;26.85;;;11.80;92.20;;;;;;5011356;28;20042;-76
2021/10/16 03:14:38;;;;;;;21.25;12.45;;;11.80;91.90;;;;;;5012649;28;20038;-77
2021/10/16 03:17:04;;;;;;;10.93;6.47;;;11.80;91.80;;;;;;5012377;28;20033;-77
2021/10/16 03:19:30;;;;;;;22.55;10.50;;;11.80;92.10;;;;;;5006622;28;20038;-76
2021/10/16 03:21:56;;;;;;;228.43;143.55;;;11.90;92.10;;;;;;5000389;28;20534;-77
2021/10/16 03:24:23;;;;;;;14.18;9.45;;;11.90;92.30;;;;;;5007419;28;20037;-76
2021/10/16 03:26:48;;;;;;;144.20;76.15;;;11.90;92.40;;;;;;5012465;28;20512;-73
2021/10/16 03:29:15;;;;;;;135.07;67.70;;;12.00;92.50;;;;;;5012413;28;20117;-76
2021/10/16 03:31:41;;;;;;;18.92;9.65;;;12.00;93.00;;;;;;5012215;28;20402;-78
2021/10/16 03:34:07;;;;;;;18.95;9.93;;;12.00;93.10;;;;;;5027732;28;20030;-77
2021/10/16 03:36:32;;;;;;;12.60;7.68;;;11.90;93.30;;;;;;5012317;28;20026;-75
2021/10/16 03:38:58;;;;;;;11.48;6.35;;;11.90;93.70;;;;;;5011840;28;20034;-76
2021/10/16 03:41:24;;;;;;;61.60;24.42;;;11.90;93.90;;;;;;5005522;28;20038;-76
2021/10/16 03:43:50;;;;;;;11.32;7.18;;;11.80;93.90;;;;;;4999865;28;20103;-77
2021/10/16 03:46:15;;;;;;;17.85;7.65;;;11.80;94.10;;;;;;5010709;28;20022;-76
2021/10/16 03:48:42;;;;;;;33.42;13.70;;;11.70;94.30;;;;;;5011057;28;20044;-73
2021/10/16 03:51:08;;;;;;;24.85;11.10;;;11.70;94.50;;;;;;5011942;28;20038;-77
2021/10/16 03:53:34;;;;;;;7.28;5.35;;;11.70;94.50;;;;;;5011877;28;20033;-77
2021/10/16 03:55:59;;;;;;;11.63;5.95;;;11.70;94.30;;;;;;5011862;28;20026;-77
2021/10/16 03:58:25;;;;;;;11.23;5.80;;;11.60;94.40;;;;;;5010898;28;20501;-77
2021/10/16 04:00:53;;;;;;;17.90;8.80;;;11.60;94.50;;;;;;5001616;28;20027;-77
2021/10/16 04:03:18;;;;;;;13.57;7.45;;;11.60;94.50;;;;;;5007334;28;20034;-77
2021/10/16 04:05:44;;;;;;;15.40;6.32;;;11.60;94.60;;;;;;5011589;28;20406;-76
2021/10/16 04:08:11;;;;;;;7.18;5.53;;;11.60;94.70;;;;;;5001596;28;20506;-77
2021/10/16 04:10:36;;;;;;;7.03;5.82;;;11.60;94.60;;;;;;5001683;28;20429;-76
2021/10/16 04:13:03;;;;;;;31.80;12.13;;;11.60;94.80;;;;;;5011384;28;20132;-77
2021/10/16 04:15:28;;;;;;;12.25;7.53;;;11.60;94.60;;;;;;5011639;28;20076;-77
2021/10/16 04:17:54;;;;;;;22.90;8.65;;;11.60;94.60;;;;;;5011802;28;20509;-76
2021/10/16 04:20:21;;;;;;;51.50;18.15;;;11.60;94.00;;;;;;5012009;28;20113;-77
2021/10/16 04:22:47;;;;;;;30.27;11.00;;;11.60;94.20;;;;;;5015881;28;20029;-76
2021/10/16 04:25:14;;;;;;;26.08;10.65;;;11.70;93.90;;;;;;5012070;28;20529;-76
2021/10/16 04:27:39;;;;;;;12.73;7.47;;;11.70;94.30;;;;;;5003782;28;20084;-77
2021/10/16 04:30:06;;;;;;;51.65;20.65;;;11.60;94.60;;;;;;5003637;28;20038;-76
2021/10/16 04:32:35;;;;;;;10.25;6.90;;;11.60;94.50;;;;;;5009092;28;20469;-78
2021/10/16 04:35:05;;;;;;;8.80;5.78;;;11.60;94.40;;;;;;5015339;28;20421;-76
2021/10/16 04:37:31;;;;;;;20.52;10.85;;;11.60;94.50;;;;;;5015534;28;20554;-77
2021/10/16 04:39:56;;;;;;;12.88;6.55;;;11.60;94.20;;;;;;5015204;28;20105;-73
2021/10/16 04:42:22;;;;;;;11.57;6.65;;;11.60;94.40;;;;;;5013171;28;20042;-78
2021/10/16 04:44:48;;;;;;;11.30;6.03;;;11.60;94.30;;;;;;5014491;28;20026;-77
2021/10/16 04:47:14;;;;;;;7.10;5.13;;;11.60;93.60;;;;;;5010683;28;20034;-77
2021/10/16 04:49:40;;;;;;;7.03;5.07;;;11.60;92.80;;;;;;5015305;28;20041;-77
2021/10/16 04:52:07;;;;;;;7.38;4.82;;;11.60;92.90;;;;;;5015076;28;20033;-76
2021/10/16 04:54:33;;;;;;;7.70;5.00;;;11.80;92.30;;;;;;5002268;28;20041;-77
2021/10/16 04:56:59;;;;;;;8.10;5.47;;;11.80;92.30;;;;;;5015313;28;20034;-77
2021/10/16 04:59:25;;;;;;;6.97;4.50;;;11.80;92.30;;;;;;5014982;28;20041;-77
2021/10/16 05:01:54;;;;;;;6.50;4.75;;;11.80;92.30;;;;;;5014851;28;20443;-77
2021/10/16 05:04:20;;;;;;;6.05;4.55;;;11.90;92.30;;;;;;5013100;28;20026;-77
2021/10/16 05:06:46;;;;;;;7.85;4.88;;;11.90;92.10;;;;;;5014853;28;20109;-70
2021/10/16 05:09:11;;;;;;;7.72;4.70;;;11.90;92.30;;;;;;5000221;28;20117;-77
2021/10/16 05:11:37;;;;;;;7.10;4.88;;;11.90;92.30;;;;;;5014638;28;20038;-77
2021/10/16 05:14:03;;;;;;;9.52;4.63;;;11.90;92.10;;;;;;5013933;28;20103;-77
2021/10/16 05:16:30;;;;;;;7.40;4.65;;;11.90;91.90;;;;;;5011743;28;20037;-75
2021/10/16 05:18:56;;;;;;;11.98;4.60;;;11.90;92.20;;;;;;5012694;28;20466;-75
2021/10/16 05:21:22;;;;;;;9.00;4.80;;;12.00;92.20;;;;;;5014733;28;20092;-77
2021/10/16 05:23:47;;;;;;;6.80;5.15;;;12.00;92.20;;;;;;5014184;28;20052;-76
2021/10/16 05:26:13;;;;;;;6.82;4.75;;;12.20;92.10;;;;;;5014418;28;20486;-77
2021/10/16 05:28:39;;;;;;;8.02;5.10;;;12.30;92.10;;;;;;5001032;28;20057;-78
2021/10/16 05:31:04;;;;;;;6.53;4.47;;;12.30;92.30;;;;;;5014416;28;20442;-75
2021/10/16 05:33:30;;;;;;;5.63;4.00;;;12.30;92.40;;;;;;5013551;28;20041;-77
2021/10/16 05:35:56;;;;;;;9.05;4.65;;;12.30;92.40;;;;;;5013950;28;20105;-75
2021/10/16 05:38:22;;;;;;;6.05;4.82;;;12.30;92.40;;;;;;5014460;28;20045;-76
2021/10/16 05:40:48;;;;;;;6.47;4.97;;;12.30;92.60;;;;;;5013937;28;20034;-76
2021/10/16 05:43:13;;;;;;;7.40;5.03;;;12.40;92.60;;;;;;5007712;28;20056;-79
2021/10/16 05:45:39;;;;;;;6.57;4.70;;;12.40;92.40;;;;;;5022832;28;20370;-77
2021/10/16 05:48:05;;;;;;;5.78;4.43;;;12.40;92.60;;;;;;5012293;28;20037;-74
2021/10/16 05:50:31;;;;;;;5.93;4.03;;;12.50;92.40;;;;;;5014310;28;20030;-77
2021/10/16 05:52:57;;;;;;;6.35;4.00;;;12.70;92.10;;;;;;5000196;28;20026;-76
2021/10/16 05:55:23;;;;;;;3.63;2.90;;;13.10;92.00;;;;;;5013930;28;20065;-76
2021/10/16 05:57:48;;;;;;;4.97;3.42;;;13.40;91.10;;;;;;5013868;28;20108;-77
2021/10/16 06:00:14;;;;;;;5.45;3.28;;;13.70;91.10;;;;;;5012524;28;20141;-72
2021/10/16 06:02:40;;;;;;;5.57;3.30;;;14.10;90.80;;;;;;5013656;28;20034;-77
2021/10/16 06:05:07;;;;;;;7.55;3.65;;;14.70;90.70;;;;;;5013178;28;20042;-77
2021/10/16 06:07:33;;;;;;;7.00;3.47;;;15.20;90.60;;;;;;5000671;28;20381;-75
2021/10/16 06:09:58;;;;;;;4.93;3.53;;;15.50;90.40;;;;;;5006885;28;20109;-77
2021/10/16 06:12:24;;;;;;;5.60;2.90;;;16.10;90.00;;;;;;5011209;28;20038;-77
2021/10/16 06:14:50;;;;;;;6.18;3.55;;;16.70;89.10;;;;;;5012330;28;20041;-76
2021/10/16 06:17:15;;;;;;;4.25;3.13;;;17.50;87.90;;;;;;5013934;28;20528;-77
2021/10/16 06:19:41;;;;;;;10.57;3.15;;;18.20;86.10;;;;;;5006086;28;20513;-77
2021/10/16 06:22:07;;;;;;;3.80;3.00;;;18.20;85.80;;;;;;5013577;28;20038;-78
2021/10/16 06:24:33;;;;;;;6.72;3.17;;;17.80;86.10;;;;;;5011971;28;20513;-76
2021/10/16 06:26:59;;;;;;;4.30;2.90;;;17.40;87.30;;;;;;5008927;28;20512;-72
2021/10/16 06:29:24;;;;;;;4.40;2.75;;;17.40;88.00;;;;;;5001169;28;20063;-77
2021/10/16 06:31:50;;;;;;;4.32;3.28;;;17.70;87.20;;;;;;5000143;28;20034;-76
2021/10/16 06:34:16;;;;;;;5.85;2.83;;;17.90;86.90;;;;;;5008832;28;20049;-75
2021/10/16 06:36:41;;;;;;;8.40;3.25;;;18.10;86.30;;;;;;5001296;28;20030;-70
2021/10/16 06:39:07;;;;;;;6.63;3.15;;;18.30;85.90;;;;;;5012392;28;20030;-74
2021/10/16 06:41:32;;;;;;;9.85;2.95;;;18.50;86.10;;;;;;5013347;28;20455;-78
2021/10/16 06:43:58;;;;;;;4.88;2.90;;;18.90;85.10;;;;;;5013336;28;20540;-76
2021/10/16 06:46:24;;;;;;;5.93;2.45;;;19.80;84.00;;;;;;5012848;28;20569;-76
2021/10/16 06:48:50;;;;;;;3.30;2.22;;;20.90;81.70;;;;;;5012364;28;20041;-77
2021/10/16 06:51:16;;;;;;;3.00;2.53;;;21.50;80.30;;;;;;5012942;28;20437;-77
2021/10/16 06:53:41;;;;;;;3.30;2.58;;;21.50;79.60;;;;;;5011802;28;20125;-72
2021/10/16 06:56:07;;;;;;;5.50;3.35;;;21.20;80.40;;;;;;5011280;28;20461;-78
2021/10/16 06:58:33;;;;;;;6.50;2.78;;;21.00;80.70;;;;;;5012665;28;20034;-78
2021/10/16 07:00:58;;;;;;;5.05;2.97;;;20.50;81.40;;;;;;5012582;28;20359;-77
2021/10/16 07:03:27;;;;;;;4.45;3.05;;;20.10;82.50;;;;;;5012544;28;20030;-73
2021/10/16 07:05:52;;;;;;;3.17;2.70;;;20.10;83.00;;;;;;5012534;28;20057;-77
2021/10/16 07:08:18;;;;;;;4.07;2.72;;;20.10;82.80;;;;;;5012790;28;20065;-78
2021/10/16 07:10:43;;;;;;;4.35;3.00;;;20.00;83.70;;;;;;5012933;28;20371;-77
2021/10/16 07:13:11;;;;;;;6.75;2.95;;;19.90;83.60;;;;;;5027087;28;20049;-78
2021/10/16 07:15:37;;;;;;;3.63;2.65;;;19.60;84.00;;;;;;5012515;28;20040;-76
2021/10/16 07:18:03;;;;;;;4.75;3.05;;;19.50;84.70;;;;;;5011961;28;20541;-77
2021/10/16 07:20:28;;;;;;;3.83;2.88;;;19.50;85.20;;;;;;5003791;28;20030;-77
2021/10/16 07:22:54;;;;;;;7.72;2.85;;;19.50;85.10;;;;;;5008159;28;20371;-78
2021/10/16 07:25:21;;;;;;;3.30;2.55;;;19.50;84.70;;;;;;5001554;28;20105;-72
2021/10/16 07:27:51;;;;;;;3.75;2.60;;;19.50;84.80;;;;;;5009331;28;20080;-77
2021/10/16 07:30:17;;;;;;;5.32;2.78;;;19.60;85.20;;;;;;5003512;28;20026;-76
2021/10/16 07:32:45;;;;;;;4.00;2.50;;;19.70;85.40;;;;;;5008195;28;20046;-77
2021/10/16 07:35:11;;;;;;;4.80;2.88;;;19.50;85.70;;;;;;5012614;28;20018;-78
2021/10/16 07:37:37;;;;;;;4.22;2.55;;;19.30;86.90;;;;;;5012500;28;20061;-74
2021/10/16 07:40:03;;;;;;;4.82;3.00;;;19.50;87.20;;;;;;4998636;28;20581;-77
2021/10/16 07:42:29;;;;;;;2.90;2.60;;;19.60;87.20;;;;;;5012462;28;20056;-77
2021/10/16 07:44:55;;;;;;;3.72;2.90;;;19.80;86.70;;;;;;5012002;28;20470;-77
2021/10/16 07:47:20;;;;;;;7.40;2.63;;;20.00;86.30;;;;;;5011504;28;20561;-76
2021/10/16 07:49:46;;;;;;;4.72;2.47;;;20.20;85.90;;;;;;5011209;28;20058;-77
2021/10/16 07:52:12;;;;;;;3.50;2.40;;;20.30;85.40;;;;;;5012135;28;20069;-73
2021/10/16 07:54:38;;;;;;;9.57;2.58;;;20.50;84.80;;;;;;5011386;28;20034;-74
2021/10/16 07:57:03;;;;;;;5.03;2.50;;;20.60;84.40;;;;;;5015268;28;20034;-77
2021/10/16 07:59:29;;;;;;;2.25;2.05;;;20.80;84.70;;;;;;5016182;28;20545;-78
2021/10/16 08:01:55;;;;;;;6.68;2.25;;;21.00;84.50;;;;;;5016144;28;20057;-75
2021/10/16 08:04:20;;;;;;;2.85;2.30;;;21.30;84.10;;;;;;5014994;28;20433;-77
2021/10/16 08:06:46;;;;;;;3.05;1.88;;;21.60;83.00;;;;;;5010555;28;20034;-74
2021/10/16 08:09:12;;;;;;;3.33;2.33;;;21.80;82.40;;;;;;5014589;28;20041;-75
2021/10/16 08:11:37;;;;;;;3.60;2.30;;;21.90;82.20;;;;;;5009107;28;20042;-77
2021/10/16 08:14:03;;;;;;;6.57;2.55;;;22.10;82.40;;;;;;5010045;28;20033;-76
2021/10/16 08:16:29;;;;;;;19.23;2.45;;;22.30;82.10;;;;;;5011425;28;20437;-79
2021/10/16 08:18:57;;;;;;;3.55;2.65;;;22.40;81.30;;;;;;5011822;28;20030;-78
2021/10/16 08:21:22;;;;;;;6.20;2.08;;;22.60;81.30;;;;;;5014794;28;20042;-78
2021/10/16 08:23:48;;;;;;;2.60;2.05;;;22.80;80.90;;;;;;5014665;28;20076;-76
2021/10/16 08:26:14;;;;;;;9.43;2.70;;;22.80;80.70;;;;;;5015119;28;20700;-79
2021/10/16 08:28:40;;;;;;;4.40;2.45;;;23.20;80.30;;;;;;5012041;28;20038;-79
2021/10/16 08:31:06;;;;;;;4.43;2.45;;;23.60;79.70;;;;;;5008109;28;20081;-78
2021/10/16 08:33:37;;;;;;;2.40;1.95;;;24.30;79.20;;;;;;5008784;28;20056;-78
2021/10/16 08:36:03;;;;;;;3.85;1.88;;;25.00;77.30;;;;;;5014640;28;20052;-77
2021/10/16 08:38:29;;;;;;;3.65;1.80;;;26.00;75.20;;;;;;5005973;28;20499;-76
2021/10/16 08:40:55;;;;;;;3.47;2.00;;;27.10;73.70;;;;;;5009951;28;20097;-74
2021/10/16 08:43:28;;;;;;;3.95;2.00;;;28.00;72.30;;;;;;5006530;28;20048;-80
2021/10/16 08:45:59;;;;;;;3.17;2.10;;;28.80;70.90;;;;;;5008365;28;20042;-78
2021/10/16 08:48:25;;;;;;;2.83;2.13;;;29.50;68.90;;;;;;5008297;28;20098;-78
2021/10/16 08:50:51;;;;;;;5.70;2.53;;;29.90;67.90;;;;;;5025446;28;20068;-85
2021/10/16 08:53:17;;;;;;;3.75;1.83;;;28.80;67.40;;;;;;5011151;28;20077;-82
2021/10/16 08:55:43;;;;;;;3.35;2.03;;;27.70;69.50;;;;;;5007617;28;20026;-82
2021/10/16 08:58:09;;;;;;;5.47;2.80;;;27.20;70.10;;;;;;5006464;28;20037;-84
2021/10/16 09:00:54;;;;;;;5.68;3.67;;;27.50;70.50;;;;;;5002058;28;20482;-85
2021/10/16 09:03:45;;;;;;;3.90;3.20;;;27.60;69.70;;;;;;5002155;28;20180;-86
2021/10/16 09:06:27;;;;;;;5.93;2.80;;;28.90;68.10;;;;;;5000705;28;20434;-84
2021/10/16 09:09:12;;;;;;;9.95;6.30;;;30.20;66.30;;;;;;5014470;28;20389;-87
2021/10/16 09:11:40;;;;;;;4.18;3.22;;;31.30;65.00;;;;;;5015392;28;20034;-85
2021/10/16 09:14:11;;;;;;;5.93;2.47;;;33.20;63.30;;;;;;5004837;28;20038;-79
2021/10/16 09:16:41;;;;;;;11.27;2.42;;;35.20;60.20;;;;;;5009973;28;20062;-82
2021/10/16 09:19:12;;;;;;;4.93;2.58;;;35.70;58.60;;;;;;5010805;28;20497;-81
2021/10/16 09:21:53;;;;;;;2.85;2.17;;;34.60;58.70;;;;;;5011254;28;20029;-80
2021/10/16 09:24:31;;;;;;;3.45;2.50;;;34.70;58.60;;;;;;4997829;28;20372;-80
2021/10/16 09:26:59;;;;;;;5.47;2.85;;;33.70;58.90;;;;;;5000515;28;20084;-72
2021/10/16 09:29:29;;;;;;;5.53;3.45;;;32.60;60.10;;;;;;5014523;28;20025;-72
2021/10/16 09:32:13;;;;;;;3.22;2.17;;;32.80;60.40;;;;;;5014801;28;20030;-73
2021/10/16 09:34:44;;;;;;;5.57;1.70;;;32.50;60.00;;;;;;5013536;28;20121;-71
2021/10/16 09:37:12;;;;;;;4.70;2.28;;;31.60;61.70;;;;;;5011813;28;20030;-77
2021/10/16 09:39:51;;;;;;;5.07;1.83;;;32.20;61.70;;;;;;5011332;28;20505;-79
2021/10/16 09:42:43;;;;;;;4.07;2.08;;;32.30;60.10;;;;;;5008093;28;20497;-72
2021/10/16 09:45:14;;;;;;;2.30;2.08;;;31.20;61.60;;;;;;5008065;28;20026;-73
2021/10/16 09:47:54;;;;;;;3.00;2.22;;;32.00;61.90;;;;;;5013719;28;20029;-72
2021/10/16 09:50:20;;;;;;;7.03;2.15;;;31.60;61.80;;;;;;5013599;28;20072;-74
2021/10/16 09:52:48;;;;;;;2.13;1.70;;;30.10;64.10;;;;;;5000887;28;20489;-74
2021/10/16 09:55:15;;;;;;;2.42;1.83;;;28.30;66.30;;;;;;5012849;28;20446;-72
2021/10/16 09:57:42;;;;;;;6.78;1.77;;;26.90;68.70;;;;;;5008688;28;20456;-74
2021/10/16 10:00:08;;;;;;;2.55;2.20;;;25.90;70.90;;;;;;4998425;28;20061;-71
2021/10/16 10:02:34;;;;;;;2.72;1.65;;;25.40;72.80;;;;;;5002961;28;20033;-73
2021/10/16 10:05:06;;;;;;;2.10;1.90;;;24.90;73.10;;;;;;4999012;28;20394;-74
2021/10/16 10:07:34;;;;;;;6.68;2.35;;;24.20;74.90;;;;;;4996820;28;20105;-72
2021/10/16 10:10:01;;;;;;;4.32;2.38;;;23.70;76.60;;;;;;5011362;28;20045;-72
2021/10/16 10:12:27;;;;;;;9.70;2.20;;;23.20;77.70;;;;;;5010839;28;20460;-74
2021/10/16 10:14:54;;;;;;;2.03;1.50;;;23.10;78.80;;;;;;5013162;28;20022;-73
2021/10/16 10:17:26;;;;;;;3.95;2.10;;;23.00;79.20;;;;;;5004399;28;20041;-74
2021/10/16 10:20:13;;;;;;;3.63;2.20;;;22.80;78.50;;;;;;5003474;28;20113;-78
2021/10/16 10:22:44;;;;;;;6.18;2.05;;;22.50;79.30;;;;;;5005460;28;20057;-76
2021/10/16 10:25:28;;;;;;;4.38;2.40;;;22.20;80.40;;;;;;5010592;28;20030;-77
2021/10/16 10:27:56;;;;;;;3.40;2.42;;;22.00;81.10;;;;;;4998642;28;20044;-81
2021/10/16 10:30:39;;;;;;;3.55;2.70;;;21.80;81.70;;;;;;5012465;28;20394;-78
2021/10/16 10:33:16;;;;;;;5.00;2.40;;;21.60;82.40;;;;;;5011373;28;20080;-79
2021/10/16 10:35:59;;;;;;;2.92;2.35;;;21.50;82.90;;;;;;4999560;28;20478;-81
2021/10/16 10:38:36;;;;;;;6.43;2.22;;;21.50;82.90;;;;;;5006271;28;20041;-80
2021/10/16 10:41:23;;;;;;;3.50;2.40;;;21.50;82.90;;;;;;5011687;28;20394;-76
2021/10/16 10:43:52;;;;;;;2.88;1.70;;;21.40;83.30;;;;;;5010505;28;20700;-81
2021/10/16 10:46:23;;;;;;;3.97;2.53;;;21.30;83.70;;;;;;5011276;28;20148;-82
2021/10/16 10:48:49;;;;;;;5.13;2.30;;;21.30;84.40;;;;;;5012338;28;20034;-77
2021/10/16 10:51:38;;;;;;;4.18;2.88;;;21.50;83.90;;;;;;5005471;28;20053;-77
2021/10/16 10:54:15;;;;;;;3.58;2.50;;;21.30;83.50;;;;;;5006865;28;20438;-76
2021/10/16 10:56:45;;;;;;;6.47;2.25;;;21.20;83.70;;;;;;5026746;28;20037;-78
2021/10/16 10:59:13;;;;;;;2.33;2.03;;;21.10;84.00;;;;;;5000803;28;20038;-77
2021/10/16 11:01:45;;;;;;;4.80;2.20;;;21.10;84.30;;;;;;5010757;28;20034;-76
2021/10/16 11:04:30;;;;;;;2.60;2.10;;;21.10;85.20;;;;;;5022663;28;20017;-78
2021/10/16 11:06:58;;;;;;;3.83;2.15;;;21.10;84.90;;;;;;5010171;28;20100;-77
2021/10/16 11:09:24;;;;;;;2.35;1.70;;;21.20;84.60;;;;;;5008037;28;20501;-76
2021/10/16 11:11:50;;;;;;;6.15;2.70;;;21.10;84.40;;;;;;5000600;28;20117;-76
2021/10/16 11:14:17;;;;;;;4.97;2.00;;;21.20;85.00;;;;;;5008655;28;20061;-78
2021/10/16 11:17:00;;;;;;;3.42;2.20;;;21.20;85.00;;;;;;5004384;28;20045;-74
2021/10/16 11:19:27;;;;;;;3.50;2.38;;;21.10;85.20;;;;;;5003817;28;20034;-74
2021/10/16 11:21:54;;;;;;;3.13;1.40;;;21.10;85.20;;;;;;5003497;28;20389;-76
2021/10/16 11:24:21;;;;;;;2.47;1.80;;;21.10;84.80;;;;;;5003346;28;20019;-77
2021/10/16 11:26:55;;;;;;;6.22;1.98;;;21.00;84.80;;;;;;4998140;28;20038;-76
2021/10/16 11:29:34;;;;;;;3.10;1.70;;;21.00;85.10;;;;;;5012001;28;20042;-76
2021/10/16 11:32:21;;;;;;;4.82;2.03;;;21.00;85.20;;;;;;5010996;28;20462;-78
2021/10/16 11:35:05;;;;;;;2.88;1.88;;;20.80;85.30;;;;;;5011415;28;20095;-73
2021/10/16 11:37:35;;;;;;;3.10;1.70;;;20.80;85.10;;;;;;4999817;28;20062;-75
2021/10/16 11:40:03;;;;;;;9.55;2.10;;;20.60;85.10;;;;;;4994538;28;20117;-78
2021/10/16 11:42:29;;;;;;;2.38;1.45;;;20.60;85.30;;;;;;5003218;28;20081;-76
2021/10/16 11:44:55;;;;;;;2.85;1.58;;;20.60;85.50;;;;;;5011266;28;20585;-73
2021/10/16 11:47:21;;;;;;;2.47;1.70;;;20.60;85.50;;;;;;5005815;28;20034;-75
2021/10/16 11:49:46;;;;;;;5.65;1.60;;;20.60;86.10;;;;;;5000703;28;20023;-74
2021/10/16 11:52:23;;;;;;;2.05;1.60;;;20.50;84.90;;;;;;5011362;28;20045;-74
2021/10/16 11:54:49;;;;;;;2.70;1.80;;;20.50;86.10;;;;;;5014785;28;20034;-74
2021/10/16 11:57:27;;;;;;;2.85;1.50;;;20.50;86.00;;;;;;5006013;28;20125;-75
2021/10/16 11:59:52;;;;;;;2.28;1.80;;;20.40;86.40;;;;;;5008449;28;20030;-74
2021/10/16 12:02:34;;;;;;;2.13;1.50;;;20.40;86.70;;;;;;5010519;28;20065;-75
2021/10/16 12:05:11;;;;;;;3.90;1.52;;;20.40;85.90;;;;;;5010085;28;20034;-74
2021/10/16 12:07:36;;;;;;;11.38;1.80;;;20.40;85.80;;;;;;5003937;28;20042;-75
2021/10/16 12:10:28;;;;;;;2.30;1.65;;;20.20;85.90;;;;;;5011080;28;20026;-77
2021/10/16 12:13:21;;;;;;;5.63;1.73;;;20.20;86.70;;;;;;5008654;28;20255;-77
2021/10/16 12:15:50;;;;;;;6.45;2.03;;;20.20;86.00;;;;;;5003062;28;20421;-76
2021/10/16 12:18:36;;;;;;;3.13;1.77;;;20.20;85.70;;;;;;5010507;28;20096;-77
2021/10/16 12:21:04;;;;;;;2.40;1.58;;;20.10;85.80;;;;;;5002168;28;20497;-76
2021/10/16 12:23:47;;;;;;;2.95;1.70;;;20.20;86.00;;;;;;5008404;28;20030;-76
2021/10/16 12:26:21;;;;;;;2.20;1.58;;;20.00;86.80;;;;;;5008254;28;20371;-75
2021/10/16 12:28:47;;;;;;;7.45;2.28;;;20.00;86.90;;;;;;5005636;28;20482;-76
2021/10/16 12:31:13;;;;;;;12.57;7.35;;;20.00;87.20;;;;;;4997788;28;20060;-76
2021/10/16 12:34:00;;;;;;;3.28;2.03;;;20.20;87.00;;;;;;5010839;28;20601;-74
2021/10/16 12:36:38;;;;;;;4.97;2.88;;;20.20;86.70;;;;;;5022139;28;20034;-77
2021/10/16 12:39:06;;;;;;;6.82;3.67;;;20.20;86.20;;;;;;5007420;28;20034;-77
2021/10/16 12:41:36;;;;;;;3.20;2.88;;;20.10;86.80;;;;;;5000641;28;20458;-78
2021/10/16 12:44:22;;;;;;;2.78;1.95;;;20.00;87.00;;;;;;5009859;28;20084;-76
2021/10/16 12:47:08;;;;;;;4.20;2.47;;;20.00;87.20;;;;;;5006076;28;20386;-77
2021/10/16 12:50:07;;;;;;;3.10;1.60;;;19.90;87.50;;;;;;5002150;28;20487;-76